createdAt,value
2018-10-05T00:02:08.701Z,99396.66
2018-10-05T00:04:36.025Z,99398.42
2018-10-05T00:07:03.416Z,99392.75
2018-10-05T00:09:31.396Z,99391.87
2018-10-05T00:11:58.927Z,99384.00
2018-10-05T00:14:26.265Z,99384.44
2018-10-05T00:16:54.116Z,99378.32
2018-10-05T00:22:11.627Z,99380.91
2018-10-05T00:24:39.081Z,99376.55
2018-10-05T00:27:06.450Z,99368.71
2018-10-05T00:29:33.829Z,99374.38
2018-10-05T00:32:01.900Z,99368.73
2018-10-05T00:34:30.310Z,99368.30
2018-10-05T00:36:57.644Z,99359.98
2018-10-05T00:39:24.912Z,99360.44
2018-10-05T00:41:52.299Z,99355.64
2018-10-05T00:44:19.610Z,99349.95
2018-10-05T00:46:46.958Z,99349.95
2018-10-05T00:49:14.201Z,99353.43
2018-10-05T00:51:41.564Z,99346.44
2018-10-05T00:54:09.141Z,99345.13
2018-10-05T00:56:36.431Z,99342.94
2018-10-05T00:59:03.720Z,99342.53
2018-10-05T01:01:31.036Z,99335.12
2018-10-05T01:03:58.368Z,99339.91
2018-10-05T01:06:25.705Z,99333.78
2018-10-05T01:08:52.981Z,99337.70
2018-10-05T01:11:20.559Z,99338.13
2018-10-05T01:13:47.903Z,99333.35
2018-10-05T01:16:16.265Z,99341.22
2018-10-05T01:18:43.645Z,99335.54
2018-10-05T01:21:11.042Z,99328.57
2018-10-05T01:23:39.212Z,99330.33
2018-10-05T01:26:07.280Z,99332.05
2018-10-05T01:28:34.664Z,99324.17
2018-10-05T01:31:02.041Z,99322.86
2018-10-05T01:33:29.492Z,99322.87
2018-10-05T01:35:56.869Z,99310.22
2018-10-05T01:38:24.853Z,99317.64
2018-10-05T01:40:53.312Z,99311.97
2018-10-05T01:43:20.700Z,99315.46
2018-10-05T01:45:48.125Z,99311.97
2018-10-05T01:48:15.724Z,99315.05
2018-10-05T01:50:43.713Z,99311.55
2018-10-05T01:53:11.049Z,99316.78
2018-10-05T01:55:38.423Z,99306.74
2018-10-05T01:58:06.373Z,99314.58
2018-10-05T02:00:33.728Z,99311.52
2018-10-05T02:03:01.733Z,99302.37
2018-10-05T02:05:29.744Z,99300.63
2018-10-05T02:07:57.159Z,99299.76
2018-10-05T02:10:25.572Z,99288.84
2018-10-05T02:12:52.882Z,99285.33
2018-10-05T02:15:20.366Z,99286.66
2018-10-05T02:17:47.678Z,99279.66
2018-10-05T02:20:15.040Z,99277.92
2018-10-05T02:22:42.562Z,99281.84
2018-10-05T02:25:09.956Z,99282.25
2018-10-05T02:27:37.332Z,99281.83
2018-10-05T02:30:05.320Z,99274.83
2018-10-05T02:32:32.612Z,99271.32
2018-10-05T02:34:59.902Z,99266.52
2018-10-05T02:37:27.366Z,99264.34
2018-10-05T02:39:54.949Z,99265.19
2018-10-05T02:42:22.298Z,99263.45
2018-10-05T02:44:50.323Z,99256.02
2018-10-05T02:47:17.622Z,99265.56
2018-10-05T02:49:44.911Z,99264.70
2018-10-05T02:52:12.197Z,99268.58
2018-10-05T02:54:39.528Z,99265.53
2018-10-05T02:57:06.816Z,99271.19
2018-10-05T02:59:34.153Z,99265.94
2018-10-05T03:02:33.530Z,99269.86
2018-10-05T03:05:00.948Z,99268.08
2018-10-05T03:07:29.348Z,99262.42
2018-10-05T03:09:57.274Z,99261.08
2018-10-05T03:12:24.610Z,99264.11
2018-10-05T03:14:51.938Z,99266.25
2018-10-05T03:17:19.259Z,99263.64
2018-10-05T03:19:47.874Z,99262.37
2018-10-05T03:22:16.399Z,99260.16
2018-10-05T03:24:45.147Z,99259.25
2018-10-05T03:27:12.468Z,99254.50
2018-10-05T03:29:39.965Z,99253.16
2018-10-05T03:32:07.349Z,99248.77
2018-10-05T03:34:34.791Z,99246.15
2018-10-05T03:37:02.695Z,99248.75
2018-10-05T03:39:29.993Z,99242.19
2018-10-05T03:41:57.361Z,99245.22
2018-10-05T03:44:24.682Z,99244.31
2018-10-05T03:46:52.077Z,99247.78
2018-10-05T03:49:19.454Z,99242.52
2018-10-05T03:51:46.775Z,99238.98
2018-10-05T03:54:25.299Z,99233.77
2018-10-05T03:56:52.990Z,99235.02
2018-10-05T03:59:20.298Z,99227.67
2018-10-05T04:01:47.617Z,99228.50
2018-10-05T04:04:14.996Z,99226.77
2018-10-05T04:06:42.332Z,99221.98
2018-10-05T04:09:11.091Z,99224.97
2018-10-05T04:11:38.392Z,99224.06
2018-10-05T04:14:05.747Z,99220.58
2018-10-05T04:16:33.042Z,99221.93
2018-10-05T04:19:00.653Z,99224.63
2018-10-05T04:21:27.964Z,99233.38
2018-10-05T04:23:55.326Z,99237.78
2018-10-05T04:26:22.641Z,99232.13
2018-10-05T04:28:49.960Z,99220.82
2018-10-05T04:31:17.618Z,99227.78
2018-10-05T04:33:44.923Z,99230.34
2018-10-05T04:36:12.484Z,99230.33
2018-10-05T04:38:39.871Z,99226.38
2018-10-05T04:41:07.192Z,99222.47
2018-10-05T04:43:34.499Z,99224.69
2018-10-05T04:46:01.831Z,99219.08
2018-10-05T04:48:29.153Z,99216.04
2018-10-05T04:50:56.448Z,99210.81
2018-10-05T04:53:23.806Z,99213.03
2018-10-05T04:55:51.113Z,99213.91
2018-10-05T04:58:18.429Z,99214.34
2018-10-05T05:00:45.798Z,99218.70
2018-10-05T05:03:13.124Z,99215.69
2018-10-05T05:05:42.286Z,99217.82
2018-10-05T05:08:09.700Z,99226.52
2018-10-05T05:10:37.102Z,99226.95
2018-10-05T05:13:04.524Z,99222.61
2018-10-05T05:15:32.938Z,99220.04
2018-10-05T05:18:01.134Z,99219.12
2018-10-05T05:20:28.603Z,99208.64
2018-10-05T05:22:57.095Z,99211.69
2018-10-05T05:25:24.614Z,99211.73
2018-10-05T05:27:52.983Z,99215.65
2018-10-05T05:30:20.548Z,99213.47
2018-10-05T05:32:48.120Z,99216.95
2018-10-05T05:35:16.189Z,99226.97
2018-10-05T05:37:45.706Z,99222.65
2018-10-05T05:40:22.879Z,99226.56
2018-10-05T05:42:55.180Z,99226.13
2018-10-05T05:48:45.595Z,99235.66
2018-10-05T05:51:13.932Z,99240.48
2018-10-05T05:53:42.793Z,99236.14
2018-10-05T05:56:11.327Z,99230.05
2018-10-05T05:58:38.810Z,99232.66
2018-10-05T06:01:07.977Z,99226.13
2018-10-05T06:03:38.510Z,99235.74
2018-10-05T06:06:07.493Z,99237.92
2018-10-05T06:08:36.630Z,99237.09
2018-10-05T06:11:04.918Z,99236.22
2018-10-05T06:13:32.686Z,99240.61
2018-10-05T06:16:00.460Z,99246.70
2018-10-05T06:23:28.119Z,99231.07
2018-10-05T06:25:56.856Z,99237.60
2018-10-05T06:28:27.796Z,99235.45
2018-10-05T06:30:56.772Z,99237.23
2018-10-05T06:33:24.298Z,99231.19
2018-10-05T06:35:51.933Z,99232.95
2018-10-05T06:38:29.471Z,99232.53
2018-10-05T06:40:59.444Z,99241.28
2018-10-05T06:43:30.891Z,99236.06
2018-10-05T06:46:13.889Z,99241.74
2018-10-05T06:48:48.491Z,99241.75
2018-10-05T06:51:43.339Z,99251.78
2018-10-05T06:54:12.242Z,99240.38
2018-10-05T06:56:41.059Z,99248.61
2018-10-05T06:59:09.091Z,99248.03
2018-10-05T07:01:39.678Z,99245.22
2018-10-05T07:04:10.139Z,99241.42
2018-10-05T07:06:38.001Z,99237.21
2018-10-05T07:09:08.274Z,99230.75
2018-10-05T07:11:39.216Z,99229.94
2018-10-05T07:14:12.337Z,99221.63
2018-10-05T07:16:42.337Z,99227.70
2018-10-05T07:19:15.897Z,99227.05
2018-10-05T07:21:46.932Z,99230.44
2018-10-05T07:24:15.547Z,99226.80
2018-10-05T07:26:44.402Z,99223.52
2018-10-05T07:29:14.077Z,99221.02
2018-10-05T07:31:43.615Z,99215.25
2018-10-05T07:34:13.196Z,99222.06
2018-10-05T07:36:43.188Z,99218.24
2018-10-05T07:39:13.636Z,99212.91
2018-10-05T07:41:46.989Z,99209.14
2018-10-05T07:44:21.007Z,99206.91
2018-10-05T07:47:03.046Z,99214.70
2018-10-05T07:49:46.047Z,99207.47
2018-10-05T07:52:14.581Z,99205.09
2018-10-05T07:54:46.958Z,99207.31
2018-10-05T07:57:15.114Z,99210.03
2018-10-05T07:59:44.621Z,99209.58
2018-10-05T08:02:12.934Z,99214.81
2018-10-05T08:04:42.645Z,99209.33
2018-10-05T08:07:12.018Z,99216.19
2018-10-05T08:09:41.461Z,99214.41
2018-10-05T08:12:09.899Z,99213.77
2018-10-05T08:14:41.019Z,99212.38
2018-10-05T08:17:10.179Z,99213.55
2018-10-05T08:19:38.844Z,99206.90
2018-10-05T08:22:07.392Z,99209.06
2018-10-05T08:24:34.842Z,99208.29
2018-10-05T08:27:04.475Z,99203.23
2018-10-05T08:29:32.156Z,99194.32
2018-10-05T08:32:00.420Z,99201.37
2018-10-05T08:34:28.714Z,99187.02
2018-10-05T08:36:58.174Z,99184.31
2018-10-05T08:39:25.718Z,99182.62
2018-10-05T08:41:53.270Z,99182.32
2018-10-05T08:44:20.674Z,99182.36
2018-10-05T08:46:48.397Z,99169.39
2018-10-05T08:49:18.980Z,99176.67
2018-10-05T08:51:47.443Z,99178.87
2018-10-05T08:54:14.787Z,99169.84
2018-10-05T08:56:44.440Z,99170.50
2018-10-05T08:59:20.384Z,99173.39
2018-10-05T09:01:49.762Z,99164.30
2018-10-05T09:04:34.131Z,99165.22
2018-10-05T09:07:01.973Z,99153.13
2018-10-05T09:09:29.682Z,99155.63
2018-10-05T09:12:10.813Z,99141.02
2018-10-05T09:14:40.259Z,99148.08
2018-10-05T09:17:08.559Z,99141.75
2018-10-05T09:19:36.595Z,99128.30
2018-10-05T09:22:04.131Z,99121.91
2018-10-05T09:24:31.458Z,99117.90
2018-10-05T09:26:58.876Z,99113.50
2018-10-05T09:29:26.292Z,99112.32
2018-10-05T09:31:53.586Z,99117.66
2018-10-05T09:34:21.208Z,99114.31
2018-10-05T09:36:48.649Z,99108.87
2018-10-05T09:39:16.419Z,99105.00
2018-10-05T09:41:44.377Z,99103.92
2018-10-05T09:44:11.805Z,99097.52
2018-10-05T09:46:39.626Z,99097.14
2018-10-05T09:49:07.115Z,99092.25
2018-10-05T09:51:35.153Z,99087.39
2018-10-05T09:54:02.759Z,99081.09
2018-10-05T09:56:30.241Z,99075.59
2018-10-05T09:58:57.652Z,99070.02
2018-10-05T10:01:30.943Z,99062.63
2018-10-05T10:03:58.445Z,99060.75
2018-10-05T10:06:26.568Z,99054.24
2018-10-05T10:08:53.993Z,99042.28
2018-10-05T10:11:21.485Z,99042.63
2018-10-05T10:13:49.135Z,99038.66
2018-10-05T10:16:16.566Z,99034.09
2018-10-05T10:18:44.745Z,99027.70
2018-10-05T10:21:13.149Z,99018.55
2018-10-05T10:23:40.670Z,99020.42
2018-10-05T10:26:08.562Z,99017.98
2018-10-05T10:28:36.138Z,99020.08
2018-10-05T10:31:03.447Z,99012.96
2018-10-05T10:33:30.883Z,99016.55
2018-10-05T10:35:58.375Z,99009.17
2018-10-05T10:38:25.881Z,99013.20
2018-10-05T10:40:54.126Z,99008.79
2018-10-05T10:43:21.845Z,99003.43
2018-10-05T10:45:49.292Z,98999.16
2018-10-05T10:48:16.759Z,98993.10
2018-10-05T10:50:44.187Z,98987.00
2018-10-05T10:53:11.676Z,98993.91
2018-10-05T10:55:39.088Z,98984.44
2018-10-05T10:58:08.262Z,98980.03
2018-10-05T11:00:35.752Z,98977.02
2018-10-05T11:03:03.553Z,98966.65
2018-10-05T11:05:30.953Z,98977.08
2018-10-05T11:07:59.235Z,98968.07
2018-10-05T11:10:26.786Z,98960.86
2018-10-05T11:12:55.050Z,98954.44
2018-10-05T11:15:22.594Z,98953.00
2018-10-05T11:17:50.025Z,98945.24
2018-10-05T11:20:19.194Z,98945.91
2018-10-05T11:22:46.691Z,98947.94
2018-10-05T11:25:14.874Z,98931.23
2018-10-05T11:27:42.370Z,98930.19
2018-10-05T11:30:10.072Z,98923.55
2018-10-05T11:32:38.658Z,98925.79
2018-10-05T11:35:06.459Z,98918.16
2018-10-05T11:37:34.000Z,98911.16
2018-10-05T11:40:02.362Z,98910.29
2018-10-05T11:42:30.727Z,98911.75
2018-10-05T11:44:58.908Z,98905.08
2018-10-05T11:47:26.593Z,98897.45
2018-10-05T11:49:55.449Z,98890.23
2018-10-05T11:52:22.983Z,98878.54
2018-10-05T11:54:50.472Z,98880.63
2018-10-05T11:57:21.612Z,98876.59
2018-10-05T11:59:49.316Z,98877.14
2018-10-05T12:02:17.443Z,98871.66
2018-10-05T12:04:44.970Z,98866.52
2018-10-05T12:07:13.139Z,98860.70
2018-10-05T12:09:40.796Z,98858.95
2018-10-05T12:12:08.448Z,98859.63
2018-10-05T12:14:37.028Z,98858.84
2018-10-05T12:17:04.492Z,98846.33
2018-10-05T12:19:32.012Z,98842.42
2018-10-05T12:22:00.432Z,98839.48
2018-10-05T12:24:29.027Z,98838.44
2018-10-05T12:26:56.522Z,98832.66
2018-10-05T12:29:24.326Z,98836.66
2018-10-05T12:31:52.465Z,98833.70
2018-10-05T12:34:20.111Z,98828.02
2018-10-05T12:36:48.722Z,98824.88
2018-10-05T12:39:17.424Z,98826.49
2018-10-05T12:41:44.969Z,98821.13
2018-10-05T12:44:12.491Z,98815.09
2018-10-05T12:46:40.526Z,98813.16
2018-10-05T12:49:07.930Z,98809.81
2018-10-05T12:51:35.357Z,98809.30
2018-10-05T12:54:02.957Z,98808.68
2018-10-05T12:56:30.497Z,98805.09
2018-10-05T12:58:58.093Z,98800.05
2018-10-05T13:01:26.276Z,98799.51
2018-10-05T13:03:53.839Z,98800.77
2018-10-05T13:06:21.297Z,98789.59
2018-10-05T13:08:48.877Z,98791.00
2018-10-05T13:11:16.418Z,98788.84
2018-10-05T13:13:43.958Z,98785.56
2018-10-05T13:16:11.551Z,98782.14
2018-10-05T13:18:39.045Z,98778.95
2018-10-05T13:21:06.617Z,98779.25
2018-10-05T13:23:34.123Z,98770.29
2018-10-05T13:26:01.640Z,98764.76
2018-10-05T13:28:29.152Z,98768.92
2018-10-05T13:30:56.645Z,98763.98
2018-10-05T13:33:24.127Z,98761.65
2018-10-05T13:35:51.674Z,98765.27
2018-10-05T13:38:19.221Z,98760.08
2018-10-05T13:40:46.814Z,98755.23
2018-10-05T13:43:15.721Z,98751.63
2018-10-05T13:45:43.318Z,98748.70
2018-10-05T13:48:10.895Z,98751.61
2018-10-05T13:50:39.744Z,98741.42
2018-10-05T13:53:07.273Z,98730.54
2018-10-05T13:55:34.746Z,98733.05
2018-10-05T13:58:02.412Z,98730.19
2018-10-05T14:00:30.005Z,98730.92
2018-10-05T14:02:58.013Z,98726.05
2018-10-05T14:05:25.633Z,98722.74
2018-10-05T14:07:54.112Z,98726.50
2018-10-05T14:10:22.274Z,98721.03
2018-10-05T14:12:49.694Z,98723.27
2018-10-05T14:15:17.360Z,98720.52
2018-10-05T14:17:44.799Z,98729.16
2018-10-05T14:20:12.487Z,98724.81
2018-10-05T14:22:40.939Z,98726.38
2018-10-05T14:25:08.422Z,98718.75
2018-10-05T14:27:36.763Z,98719.41
2018-10-05T14:30:04.327Z,98713.01
2018-10-05T14:32:31.796Z,98711.00
2018-10-05T14:34:59.304Z,98705.65
2018-10-05T14:37:26.770Z,98705.34
2018-10-05T14:42:21.788Z,98695.59
2018-10-05T14:44:51.324Z,98686.22
2018-10-05T14:47:18.863Z,98682.37
2018-10-05T14:49:46.400Z,98674.27
2018-10-05T14:52:18.425Z,98677.02
2018-10-05T14:54:45.962Z,98668.81
2018-10-05T14:57:13.585Z,98664.64
2018-10-05T14:59:42.597Z,98658.70
2018-10-05T15:02:11.343Z,98666.52
2018-10-05T15:04:38.796Z,98660.42
2018-10-05T15:07:06.652Z,98657.02
2018-10-05T15:09:34.731Z,98657.04
2018-10-05T15:12:02.239Z,98656.59
2018-10-05T15:14:29.792Z,98655.91
2018-10-05T15:16:58.036Z,98655.73
2018-10-05T15:19:26.257Z,98648.58
2018-10-05T15:21:54.593Z,98655.74
2018-10-05T15:24:22.061Z,98654.03
2018-10-05T15:26:49.619Z,98658.04
2018-10-05T15:29:17.970Z,98653.28
2018-10-05T15:31:47.760Z,98650.02
2018-10-05T15:34:15.925Z,98652.13
2018-10-05T15:36:49.398Z,98643.05
2018-10-05T15:39:18.334Z,98645.40
2018-10-05T15:41:47.838Z,98643.87
2018-10-05T15:44:15.558Z,98638.30
2018-10-05T15:47:02.576Z,98636.41
2018-10-05T15:49:31.989Z,98636.00
2018-10-05T15:51:59.956Z,98633.95
2018-10-05T15:54:27.608Z,98630.31
2018-10-05T15:56:55.370Z,98627.11
2018-10-05T15:59:23.467Z,98627.93
2018-10-05T16:01:51.798Z,98625.34
2018-10-05T16:04:20.191Z,98624.75
2018-10-05T16:06:48.802Z,98622.56
2018-10-05T16:09:16.177Z,98630.09
2018-10-05T16:11:43.497Z,98626.29
2018-10-05T16:14:10.928Z,98619.57
2018-10-05T16:16:38.469Z,98622.20
2018-10-05T16:19:06.528Z,98620.13
2018-10-05T16:21:34.871Z,98623.22
2018-10-05T16:24:05.299Z,98620.61
2018-10-05T16:26:32.730Z,98623.95
2018-10-05T16:29:00.256Z,98619.84
2018-10-05T16:31:28.052Z,98622.68
2018-10-05T16:33:55.558Z,98619.69
2018-10-05T16:36:23.145Z,98627.05
2018-10-05T16:38:50.652Z,98622.45
2018-10-05T16:41:18.204Z,98616.09
2018-10-05T16:43:45.937Z,98620.52
2018-10-05T16:46:13.504Z,98618.03
2018-10-05T16:48:41.162Z,98619.88
2018-10-05T16:51:08.673Z,98616.23
2018-10-05T16:53:36.157Z,98612.25
2018-10-05T16:56:03.718Z,98614.98
2018-10-05T16:58:31.428Z,98614.66
2018-10-05T17:00:59.856Z,98614.72
2018-10-05T17:03:27.479Z,98612.17
2018-10-05T17:06:00.324Z,98612.69
2018-10-05T17:08:29.274Z,98610.03
2018-10-05T17:10:56.723Z,98606.79
2018-10-05T17:13:24.019Z,98611.63
2018-10-05T17:15:51.371Z,98610.43
2018-10-05T17:18:18.710Z,98613.15
2018-10-05T17:20:46.043Z,98604.34
2018-10-05T17:23:13.438Z,98601.80
2018-10-05T17:25:40.821Z,98608.69
2018-10-05T17:28:08.286Z,98608.22
2018-10-05T17:30:35.694Z,98604.48
2018-10-05T17:33:03.078Z,98595.98
2018-10-05T17:35:30.382Z,98597.80
2018-10-05T17:37:58.131Z,98594.45
2018-10-05T17:40:26.119Z,98591.93
2018-10-05T17:42:53.495Z,98591.87
2018-10-05T17:45:20.803Z,98586.58
2018-10-05T17:47:48.277Z,98591.30
2018-10-05T17:50:15.605Z,98588.59
2018-10-05T17:52:43.065Z,98590.69
2018-10-05T17:55:10.440Z,98594.30
2018-10-05T17:57:37.744Z,98596.14
2018-10-05T18:00:05.094Z,98594.31
2018-10-05T18:02:32.514Z,98594.70
2018-10-05T18:04:59.946Z,98600.20
2018-10-05T18:07:27.684Z,98593.99
2018-10-05T18:09:55.042Z,98592.67
2018-10-05T18:12:23.058Z,98588.89
2018-10-05T18:14:50.471Z,98588.84
2018-10-05T18:17:18.929Z,98589.81
2018-10-05T18:19:51.692Z,98580.57
2018-10-05T18:22:20.309Z,98585.86
2018-10-05T18:24:47.701Z,98574.17
2018-10-05T18:27:15.278Z,98579.57
2018-10-05T18:29:44.512Z,98569.61
2018-10-05T18:32:12.490Z,98566.05
2018-10-05T18:34:39.981Z,98564.59
2018-10-05T18:37:07.422Z,98561.20
2018-10-05T18:39:34.901Z,98565.36
2018-10-05T18:42:03.557Z,98558.94
2018-10-05T18:44:31.793Z,98558.61
2018-10-05T18:46:59.845Z,98558.83
2018-10-05T18:49:27.890Z,98556.39
2018-10-05T18:51:55.696Z,98550.49
2018-10-05T18:54:23.157Z,98549.75
2018-10-05T18:57:01.788Z,98550.91
2018-10-05T18:59:31.450Z,98547.76
2018-10-05T19:02:00.565Z,98560.32
2018-10-05T19:04:29.961Z,98566.77
2018-10-05T19:06:59.476Z,98563.42
2018-10-05T19:09:28.735Z,98559.77
2018-10-05T19:11:57.269Z,98561.52
2018-10-05T19:14:24.777Z,98552.02
2018-10-05T19:16:52.229Z,98554.70
2018-10-05T19:19:19.707Z,98559.46
2018-10-05T19:21:49.640Z,98553.73
2018-10-05T19:24:17.073Z,98546.69
2018-10-05T19:26:44.514Z,98541.42
2018-10-05T19:29:11.967Z,98544.45
2018-10-05T19:31:39.293Z,98536.60
2018-10-05T19:34:06.727Z,98530.17
2018-10-05T19:36:36.669Z,98521.52
2018-10-05T19:39:05.970Z,98518.55
2018-10-05T19:41:33.310Z,98519.57
2018-10-05T19:44:00.681Z,98515.52
2018-10-05T19:46:28.081Z,98517.63
2018-10-05T19:48:55.520Z,98512.20
2018-10-05T19:51:22.984Z,98509.84
2018-10-05T19:53:50.429Z,98500.09
2018-10-05T19:56:17.734Z,98499.47
2018-10-05T19:58:45.173Z,98498.53
2018-10-05T20:01:13.464Z,98494.47
2018-10-05T20:03:40.810Z,98482.85
2018-10-05T20:06:08.401Z,98476.05
2018-10-05T20:08:36.030Z,98470.80
2018-10-05T20:11:03.514Z,98453.77
2018-10-05T20:13:31.045Z,98454.81
2018-10-05T20:15:58.408Z,98451.30
2018-10-05T20:18:26.090Z,98441.33
2018-10-05T20:20:54.084Z,98439.14
2018-10-05T20:23:21.496Z,98433.78
2018-10-05T20:25:48.817Z,98435.98
2018-10-05T20:28:16.189Z,98436.77
2018-10-05T20:30:43.681Z,98434.92
2018-10-05T20:33:12.807Z,98445.52
2018-10-05T20:35:41.545Z,98444.97
2018-10-05T20:38:09.781Z,98443.33
2018-10-05T20:40:38.638Z,98444.44
2018-10-05T20:43:06.101Z,98444.69
2018-10-05T20:45:33.465Z,98440.72
2018-10-05T20:48:00.938Z,98443.66
2018-10-05T20:50:28.280Z,98453.17
2018-10-05T20:52:55.626Z,98455.81
2018-10-05T20:55:22.938Z,98456.38
2018-10-05T20:57:50.274Z,98455.98
2018-10-05T21:00:17.699Z,98459.88
2018-10-05T21:02:45.726Z,98459.10
2018-10-05T21:05:13.214Z,98461.09
2018-10-05T21:07:41.241Z,98460.02
2018-10-05T21:10:08.575Z,98462.44
2018-10-05T21:12:36.941Z,98458.55
2018-10-05T21:15:04.370Z,98453.58
2018-10-05T21:17:31.693Z,98447.70
2018-10-05T21:19:59.147Z,98449.36
2018-10-05T21:22:27.236Z,98441.02
2018-10-05T21:24:54.647Z,98445.98
2018-10-05T21:27:22.094Z,98439.63
2018-10-05T21:29:49.474Z,98434.75
2018-10-05T21:32:16.870Z,98433.28
2018-10-05T21:34:44.230Z,98430.00
2018-10-05T21:37:11.592Z,98429.11
2018-10-05T21:39:39.743Z,98431.16
2018-10-05T21:42:07.141Z,98418.61
2018-10-05T21:44:34.521Z,98420.32
2018-10-05T21:47:01.814Z,98422.26
2018-10-05T21:49:29.104Z,98416.89
2018-10-05T21:51:56.402Z,98413.94
2018-10-05T21:54:23.688Z,98424.95
2018-10-05T21:56:50.966Z,98417.11
2018-10-05T21:59:18.278Z,98415.47
2018-10-05T22:01:45.650Z,98424.26
2018-10-05T22:04:13.005Z,98425.33
2018-10-05T22:06:40.308Z,98409.05
2018-10-05T22:09:08.917Z,98412.25
2018-10-05T22:11:36.485Z,98412.70
2018-10-05T22:14:03.801Z,98411.40
2018-10-05T22:16:31.241Z,98413.07
2018-10-05T22:18:59.218Z,98421.13
2018-10-05T22:21:26.545Z,98419.98
2018-10-05T22:23:53.944Z,98427.64
2018-10-05T22:26:21.903Z,98430.88
2018-10-05T22:28:49.229Z,98434.17
2018-10-05T22:31:16.548Z,98442.78
2018-10-05T22:33:50.018Z,98431.58
2018-10-05T22:36:17.415Z,98435.98
2018-10-05T22:38:45.403Z,98438.27
2018-10-05T22:41:12.900Z,98428.61
2018-10-05T22:43:41.003Z,98432.64
2018-10-05T22:46:09.403Z,98435.66
2018-10-05T22:48:36.713Z,98430.41
2018-10-05T22:51:04.084Z,98431.19
2018-10-05T22:53:31.350Z,98439.23
2018-10-05T22:55:58.673Z,98431.55
2018-10-05T22:58:26.022Z,98431.82
2018-10-05T23:00:54.317Z,98435.36
2018-10-05T23:03:21.711Z,98436.33
2018-10-05T23:05:49.047Z,98438.13
2018-10-05T23:08:16.402Z,98434.52
2018-10-05T23:10:46.316Z,98425.14
2018-10-05T23:13:13.741Z,98426.22
2018-10-05T23:15:41.710Z,98427.31
2018-10-05T23:18:09.097Z,98434.35
2018-10-05T23:20:37.453Z,98427.60
2018-10-05T23:23:04.816Z,98426.78
2018-10-05T23:25:36.542Z,98424.78
2018-10-05T23:28:04.019Z,98416.55
2018-10-05T23:30:31.391Z,98416.60
2018-10-05T23:32:58.684Z,98419.81
2018-10-05T23:35:26.810Z,98417.67
2018-10-05T23:37:54.255Z,98415.33
2018-10-05T23:40:22.129Z,98411.30
2018-10-05T23:42:49.499Z,98423.23
2018-10-05T23:45:17.120Z,98414.25
2018-10-05T23:47:44.515Z,98426.11
2018-10-05T23:50:11.818Z,98422.66
2018-10-05T23:52:41.304Z,98416.87
2018-10-05T23:55:08.676Z,98415.41
2018-10-05T23:57:37.057Z,98405.95
